createdAt,value
2018-11-20T00:01:44.342Z,133.37
2018-11-20T00:04:35.726Z,131.70
2018-11-20T00:07:30.654Z,132.75
2018-11-20T00:10:17.466Z,122.82
2018-11-20T00:13:14.897Z,127.60
2018-11-20T00:15:56.271Z,177.45
2018-11-20T00:18:43.206Z,156.28
2018-11-20T00:21:40.553Z,150.10
2018-11-20T00:24:20.852Z,132.65
2018-11-20T00:27:08.217Z,200.32
2018-11-20T00:29:55.347Z,167.10
2018-11-20T00:32:43.793Z,150.62
2018-11-20T00:35:23.249Z,137.68
2018-11-20T00:38:11.649Z,123.02
2018-11-20T00:40:55.300Z,118.67
2018-11-20T00:43:46.523Z,110.75
2018-11-20T00:46:37.964Z,101.07
2018-11-20T00:49:25.135Z,105.93
2018-11-20T00:52:03.078Z,103.50
2018-11-20T00:54:50.484Z,118.63
2018-11-20T00:57:41.847Z,94.57
2018-11-20T01:00:26.946Z,117.17
2018-11-20T01:03:21.625Z,116.88
2018-11-20T01:06:12.676Z,114.05
2018-11-20T01:08:51.947Z,112.47
2018-11-20T01:11:39.374Z,118.33
2018-11-20T01:14:26.391Z,101.85
2018-11-20T01:17:20.403Z,101.10
2018-11-20T01:20:09.748Z,99.85
2018-11-20T01:22:58.174Z,90.80
2018-11-20T01:25:49.495Z,88.93
2018-11-20T01:28:40.608Z,82.53
2018-11-20T01:31:31.830Z,85.27
2018-11-20T01:34:12.152Z,78.37
2018-11-20T01:36:59.534Z,75.90
2018-11-20T01:39:46.864Z,74.27
2018-11-20T01:42:35.288Z,76.67
2018-11-20T01:45:41.880Z,77.27
2018-11-20T01:48:29.215Z,77.97
2018-11-20T01:51:16.097Z,77.07
2018-11-20T01:54:04.706Z,72.80
2018-11-20T01:56:58.707Z,72.03
2018-11-20T01:59:45.528Z,66.23
2018-11-20T02:02:42.845Z,73.07
2018-11-20T02:05:34.005Z,75.72
2018-11-20T02:08:22.405Z,73.33
2018-11-20T02:11:23.008Z,69.57
2018-11-20T02:14:33.781Z,73.53
2018-11-20T02:17:25.163Z,79.27
2018-11-20T02:20:16.527Z,80.63
2018-11-20T02:23:22.960Z,79.93
2018-11-20T02:26:11.375Z,77.47
2018-11-20T02:29:08.728Z,73.60
2018-11-20T02:32:02.930Z,72.77
2018-11-20T02:34:53.920Z,75.67
2018-11-20T02:37:40.846Z,69.53
2018-11-20T02:40:47.201Z,69.73
2018-11-20T02:43:47.593Z,67.60
2018-11-20T02:46:44.878Z,77.37
2018-11-20T02:49:31.984Z,78.07
2018-11-20T02:52:32.583Z,69.17
2018-11-20T02:55:17.873Z,72.00
2018-11-20T02:58:06.652Z,71.10
2018-11-20T03:00:57.860Z,68.63
2018-11-20T03:03:46.368Z,72.53
2018-11-20T03:06:52.663Z,75.20
2018-11-20T03:09:39.893Z,73.03
2018-11-20T03:12:28.300Z,71.50
2018-11-20T03:15:15.520Z,68.10
2018-11-20T03:18:10.662Z,68.17
2018-11-20T03:21:06.067Z,72.10
2018-11-20T03:23:57.580Z,67.30
2018-11-20T03:26:46.000Z,71.17
2018-11-20T03:30:07.994Z,77.43
2018-11-20T03:32:48.587Z,83.33
2018-11-20T03:35:42.838Z,75.70
2018-11-20T03:38:43.473Z,72.70
2018-11-20T03:41:31.881Z,75.70
2018-11-20T03:44:12.073Z,86.80
2018-11-20T03:46:58.677Z,79.07
2018-11-20T03:49:45.749Z,73.33
2018-11-20T03:52:32.926Z,75.10
2018-11-20T03:55:24.282Z,82.67
2018-11-20T03:58:30.928Z,73.73
2018-11-20T04:01:22.293Z,86.77
2018-11-20T04:04:13.678Z,79.53
2018-11-20T04:07:02.132Z,75.70
2018-11-20T04:09:41.335Z,73.37
2018-11-20T04:12:28.531Z,73.53
2018-11-20T04:15:16.185Z,79.90
2018-11-20T04:18:19.457Z,73.03
2018-11-20T04:21:16.607Z,79.60
2018-11-20T04:24:08.040Z,76.83
2018-11-20T04:26:45.644Z,75.20
2018-11-20T04:29:31.321Z,76.57
2018-11-20T04:32:22.950Z,76.23
2018-11-20T04:35:32.012Z,78.13
2018-11-20T04:38:16.997Z,71.87
2018-11-20T04:41:05.471Z,77.13
2018-11-20T04:43:56.821Z,76.10
2018-11-20T04:46:33.548Z,71.30
2018-11-20T04:49:13.989Z,69.03
2018-11-20T04:52:04.987Z,77.10
2018-11-20T04:54:51.928Z,76.13
2018-11-20T04:57:36.692Z,69.57
2018-11-20T05:00:28.922Z,70.43
2018-11-20T05:03:26.468Z,74.87
2018-11-20T05:06:15.280Z,81.43
2018-11-20T05:09:12.464Z,74.70
2018-11-20T05:12:12.982Z,77.53
2018-11-20T05:15:13.279Z,73.30
2018-11-20T05:17:59.335Z,76.90
2018-11-20T05:20:46.207Z,73.23
2018-11-20T05:23:49.931Z,69.13
2018-11-20T05:26:37.025Z,77.40
2018-11-20T05:29:31.583Z,71.00
2018-11-20T05:32:29.134Z,68.80
2018-11-20T05:35:16.353Z,72.07
2018-11-20T05:38:01.953Z,73.07
2018-11-20T05:40:44.680Z,77.87
2018-11-20T05:43:35.826Z,76.00
2018-11-20T05:46:24.288Z,71.60
2018-11-20T05:49:12.921Z,76.47
2018-11-20T05:51:59.794Z,73.27
2018-11-20T05:54:50.790Z,72.83
2018-11-20T05:57:38.032Z,77.47
2018-11-20T06:00:31.619Z,82.83
2018-11-20T06:03:26.260Z,75.50
2018-11-20T06:06:17.608Z,77.33
2018-11-20T06:09:12.952Z,79.83
2018-11-20T06:12:00.171Z,80.67
2018-11-20T06:14:54.547Z,72.47
2018-11-20T06:17:41.292Z,73.20
2018-11-20T06:20:30.303Z,77.33
2018-11-20T06:23:20.979Z,67.57
2018-11-20T06:26:21.474Z,65.03
2018-11-20T06:29:27.141Z,67.80
2018-11-20T06:32:24.466Z,57.00
2018-11-20T06:35:14.523Z,56.80
2018-11-20T06:38:17.995Z,50.13
2018-11-20T06:41:16.763Z,36.03
2018-11-20T06:44:01.851Z,35.07
2018-11-20T06:46:44.222Z,31.83
2018-11-20T06:49:25.853Z,25.20
2018-11-20T06:52:20.284Z,26.43
2018-11-20T06:55:08.716Z,25.80
2018-11-20T06:57:55.583Z,20.57
2018-11-20T07:00:44.081Z,25.93
2018-11-20T07:03:32.283Z,22.73
2018-11-20T07:06:39.161Z,21.77
2018-11-20T07:09:37.292Z,25.93
2018-11-20T07:12:24.191Z,31.47
2018-11-20T07:15:11.544Z,28.53
2018-11-20T07:18:10.849Z,27.80
2018-11-20T07:21:11.379Z,29.20
2018-11-20T07:24:06.234Z,31.80
2018-11-20T07:26:53.707Z,28.30
2018-11-20T07:29:51.449Z,31.20
2018-11-20T07:32:37.572Z,29.90
2018-11-20T07:35:41.402Z,27.13
2018-11-20T07:38:35.545Z,34.20
2018-11-20T07:41:21.374Z,28.70
2018-11-20T07:44:19.022Z,32.63
2018-11-20T07:47:13.136Z,29.63
2018-11-20T07:50:00.494Z,25.40
2018-11-20T07:52:51.739Z,24.20
2018-11-20T07:55:40.157Z,24.20
2018-11-20T07:58:27.717Z,25.77
2018-11-20T08:01:15.647Z,22.97
2018-11-20T08:04:02.745Z,24.13
2018-11-20T08:06:49.875Z,24.23
2018-11-20T08:09:41.698Z,20.73
2018-11-20T08:12:29.096Z,23.00
2018-11-20T08:15:18.752Z,20.73
2018-11-20T08:18:05.660Z,23.67
2018-11-20T08:20:52.896Z,21.93
2018-11-20T08:23:47.341Z,21.53
2018-11-20T08:26:50.879Z,24.83
2018-11-20T08:29:38.111Z,20.27
2018-11-20T08:32:26.265Z,21.10
2018-11-20T08:35:33.007Z,18.73
2018-11-20T08:38:21.018Z,20.77
2018-11-20T08:41:07.999Z,19.27
2018-11-20T08:43:52.069Z,22.67
2018-11-20T08:46:43.597Z,28.80
2018-11-20T08:49:30.835Z,23.20
2018-11-20T08:52:25.411Z,23.67
2018-11-20T08:55:19.557Z,21.33
2018-11-20T08:58:13.959Z,18.90
2018-11-20T09:01:15.665Z,19.53
2018-11-20T09:04:23.030Z,20.40
2018-11-20T09:07:20.677Z,14.70
2018-11-20T09:10:07.779Z,19.50
2018-11-20T09:13:02.168Z,20.63
2018-11-20T09:15:59.769Z,17.90
2018-11-20T09:19:00.474Z,21.40
2018-11-20T09:21:55.026Z,20.20
2018-11-20T09:24:51.121Z,18.07
2018-11-20T09:27:38.260Z,19.07
2018-11-20T09:30:25.885Z,17.97
2018-11-20T09:33:26.412Z,21.37
2018-11-20T09:36:13.797Z,21.60
2018-11-20T09:39:20.609Z,22.20
2018-11-20T09:42:02.907Z,19.33
2018-11-20T09:45:13.449Z,21.23
2018-11-20T09:48:04.820Z,20.10
2018-11-20T09:50:47.423Z,18.10
2018-11-20T09:53:35.931Z,20.67
2018-11-20T09:56:30.586Z,24.17
2018-11-20T10:00:09.885Z,25.80
2018-11-20T10:03:06.589Z,17.37
2018-11-20T10:05:57.216Z,21.83
2018-11-20T10:08:50.799Z,19.27
2018-11-20T10:11:37.060Z,20.20
2018-11-20T10:14:36.554Z,20.97
2018-11-20T10:17:22.660Z,22.27
2018-11-20T10:20:19.198Z,17.13
2018-11-20T10:23:18.803Z,21.60
2018-11-20T10:26:24.976Z,23.10
2018-11-20T10:29:26.809Z,21.87
2018-11-20T10:32:13.177Z,24.27
2018-11-20T10:35:18.824Z,25.17
2018-11-20T10:38:00.318Z,21.00
2018-11-20T10:40:59.934Z,21.50
2018-11-20T10:43:51.320Z,24.60
2018-11-20T10:46:51.341Z,24.10
2018-11-20T10:49:38.580Z,28.40
2018-11-20T10:52:26.464Z,22.70
2018-11-20T10:55:16.869Z,26.00
2018-11-20T10:58:11.758Z,28.70
2018-11-20T11:00:57.901Z,26.20
2018-11-20T11:03:45.609Z,24.50
2018-11-20T11:06:49.354Z,28.03
2018-11-20T11:09:18.969Z,27.07
2018-11-20T11:12:15.782Z,28.80
2018-11-20T11:15:06.107Z,28.13
2018-11-20T11:17:53.121Z,30.40
2018-11-20T11:20:39.471Z,29.03
2018-11-20T11:23:25.775Z,32.43
2018-11-20T11:26:16.638Z,29.87
2018-11-20T11:28:53.512Z,25.80
2018-11-20T11:31:50.090Z,23.30
2018-11-20T11:34:53.136Z,21.63
2018-11-20T11:37:53.127Z,21.97
2018-11-20T11:40:39.412Z,22.57
2018-11-20T11:43:38.779Z,22.97
2018-11-20T11:46:24.871Z,26.93
2018-11-20T11:49:11.420Z,23.00
2018-11-20T11:51:59.125Z,25.10
2018-11-20T11:54:47.894Z,23.50
2018-11-20T11:57:37.276Z,23.67
2018-11-20T12:00:27.855Z,20.70
2018-11-20T12:03:17.485Z,22.53
2018-11-20T12:06:05.183Z,23.77
2018-11-20T12:09:04.729Z,23.30
2018-11-20T12:11:50.490Z,20.97
2018-11-20T12:14:36.922Z,24.53
2018-11-20T12:17:23.029Z,30.70
2018-11-20T12:20:10.852Z,32.63
2018-11-20T12:22:57.551Z,36.40
2018-11-20T12:25:57.093Z,40.90
2018-11-20T12:28:43.226Z,41.37
2018-11-20T12:31:28.734Z,29.83
2018-11-20T12:34:16.759Z,29.07
2018-11-20T12:37:04.447Z,24.37
2018-11-20T12:39:50.484Z,25.30
2018-11-20T12:42:57.670Z,29.17
2018-11-20T12:46:04.305Z,25.93
2018-11-20T12:48:56.305Z,26.13
2018-11-20T12:51:54.578Z,20.37
2018-11-20T12:54:45.733Z,23.63
2018-11-20T12:57:34.036Z,26.70
2018-11-20T13:00:28.408Z,29.87
2018-11-20T13:03:18.826Z,25.63
2018-11-20T13:06:09.202Z,26.47
2018-11-20T13:08:54.267Z,27.60
2018-11-20T13:11:48.078Z,25.07
2018-11-20T13:14:38.616Z,21.03
2018-11-20T13:17:25.210Z,17.10
2018-11-20T13:20:11.405Z,24.60
2018-11-20T13:22:59.013Z,24.10
2018-11-20T13:26:01.754Z,20.97
2018-11-20T13:28:55.252Z,22.67
2018-11-20T13:31:41.479Z,25.00
2018-11-20T13:34:41.034Z,22.93
2018-11-20T13:37:27.459Z,22.40
2018-11-20T13:40:27.024Z,30.80
2018-11-20T13:43:08.564Z,34.33
2018-11-20T13:46:11.632Z,32.50
2018-11-20T13:49:11.978Z,32.67
2018-11-20T13:51:57.066Z,36.87
2018-11-20T13:54:43.478Z,33.97
2018-11-20T13:57:29.889Z,30.27
2018-11-20T14:00:16.256Z,26.63
2018-11-20T14:03:03.385Z,24.63
2018-11-20T14:06:09.356Z,22.07
2018-11-20T14:08:59.947Z,28.90
2018-11-20T14:11:53.367Z,36.60
2018-11-20T14:14:49.951Z,25.73
2018-11-20T14:17:50.923Z,22.13
2018-11-20T14:20:42.813Z,24.83
2018-11-20T14:23:39.622Z,24.03
2018-11-20T14:26:23.292Z,24.07
2018-11-20T14:29:13.753Z,24.37
2018-11-20T14:32:01.436Z,22.67
2018-11-20T14:34:49.150Z,24.50
2018-11-20T14:37:46.225Z,25.67
2018-11-20T14:40:35.198Z,25.00
2018-11-20T14:43:31.667Z,25.90
2018-11-20T14:46:17.974Z,27.20
2018-11-20T14:49:04.377Z,21.27
2018-11-20T14:51:51.656Z,20.70
2018-11-20T14:54:36.314Z,24.40
2018-11-20T14:57:22.503Z,25.00
2018-11-20T15:00:08.842Z,16.00
2018-11-20T15:02:51.319Z,21.43
2018-11-20T15:05:44.063Z,28.27
2018-11-20T15:08:30.387Z,31.53
2018-11-20T15:11:14.803Z,22.73
2018-11-20T15:14:03.727Z,24.37
2018-11-20T15:16:49.868Z,27.37
2018-11-20T15:19:37.186Z,21.10
2018-11-20T15:22:31.033Z,21.80
2018-11-20T15:25:06.684Z,26.37
2018-11-20T15:27:44.132Z,27.53
2018-11-20T15:30:35.641Z,30.87
2018-11-20T15:33:13.124Z,33.10
2018-11-20T15:36:03.425Z,16.43
2018-11-20T15:38:43.004Z,28.10
2018-11-20T15:41:30.734Z,22.13
2018-11-20T15:44:17.439Z,29.13
2018-11-20T15:47:17.600Z,32.03
2018-11-20T15:50:09.181Z,21.10
2018-11-20T15:52:55.783Z,13.73
2018-11-20T15:55:46.068Z,15.30
2018-11-20T15:58:48.771Z,14.10
2018-11-20T16:01:35.164Z,17.20
2018-11-20T16:04:21.345Z,20.10
2018-11-20T16:07:07.509Z,25.87
2018-11-20T16:10:04.142Z,30.90
2018-11-20T16:13:04.022Z,22.13
2018-11-20T16:15:45.553Z,30.90
2018-11-20T16:18:36.010Z,33.73
2018-11-20T16:21:32.782Z,17.60
2018-11-20T16:24:18.867Z,13.90
2018-11-20T16:27:05.004Z,13.20
2018-11-20T16:29:51.199Z,15.50
2018-11-20T16:32:37.802Z,15.53
2018-11-20T16:35:21.660Z,22.87
2018-11-20T16:38:15.662Z,24.27
2018-11-20T16:41:01.958Z,20.23
2018-11-20T16:44:04.574Z,23.73
2018-11-20T16:46:50.943Z,22.90
2018-11-20T16:49:37.729Z,23.90
2018-11-20T16:52:24.258Z,29.13
2018-11-20T16:55:10.289Z,25.47
2018-11-20T16:57:56.414Z,18.47
2018-11-20T17:00:59.406Z,13.23
2018-11-20T17:03:45.477Z,15.27
2018-11-20T17:06:26.646Z,15.00
2018-11-20T17:09:12.648Z,13.80
2018-11-20T17:11:58.825Z,10.07
2018-11-20T17:14:44.934Z,11.00
2018-11-20T17:17:36.164Z,15.17
2018-11-20T17:20:25.682Z,15.73
2018-11-20T17:23:12.165Z,16.80
2018-11-20T17:26:08.608Z,21.87
2018-11-20T17:28:51.017Z,18.97
2018-11-20T17:31:37.408Z,20.07
2018-11-20T17:34:22.954Z,24.03
2018-11-20T17:37:22.744Z,22.23
2018-11-20T17:40:13.318Z,22.70
2018-11-20T17:42:59.825Z,25.90
2018-11-20T17:45:43.655Z,24.17
2018-11-20T17:48:29.812Z,20.47
2018-11-20T17:51:15.799Z,22.73
2018-11-20T17:53:57.519Z,25.00
2018-11-20T17:56:43.807Z,22.60
2018-11-20T17:59:43.317Z,20.73
2018-11-20T18:02:23.221Z,20.20
2018-11-20T18:05:26.154Z,17.20
2018-11-20T18:08:12.736Z,19.53
2018-11-20T18:11:02.930Z,16.00
2018-11-20T18:13:49.761Z,19.77
2018-11-20T18:16:40.626Z,18.40
2018-11-20T18:19:27.143Z,18.90
2018-11-20T18:22:24.092Z,19.47
2018-11-20T18:25:20.974Z,22.70
2018-11-20T18:28:06.316Z,23.40
2018-11-20T18:30:52.377Z,21.63
2018-11-20T18:33:40.032Z,19.73
2018-11-20T18:36:36.579Z,23.40
2018-11-20T18:39:43.318Z,13.87
2018-11-20T18:42:33.702Z,15.70
2018-11-20T18:45:30.433Z,14.47
2018-11-20T18:48:18.146Z,19.53
2018-11-20T18:51:04.580Z,16.50
2018-11-20T18:53:51.094Z,15.10
2018-11-20T18:56:36.360Z,11.30
2018-11-20T18:59:26.612Z,13.93
2018-11-20T19:02:29.485Z,12.23
2018-11-20T19:05:15.789Z,11.37
2018-11-20T19:08:10.276Z,11.90
2018-11-20T19:10:56.677Z,12.67
2018-11-20T19:13:44.340Z,17.53
2018-11-20T19:16:30.546Z,17.53
2018-11-20T19:19:36.085Z,15.90
2018-11-20T19:22:27.057Z,15.37
2018-11-20T19:25:13.613Z,13.63
2018-11-20T19:28:05.515Z,15.70
2018-11-20T19:30:57.179Z,19.17
2018-11-20T19:34:02.852Z,11.17
2018-11-20T19:36:50.504Z,12.30
2018-11-20T19:39:50.134Z,17.33
2018-11-20T19:42:36.698Z,16.30
2018-11-20T19:45:24.626Z,13.63
2018-11-20T19:48:21.174Z,11.80
2018-11-20T19:54:13.022Z,14.33
2018-11-20T19:57:06.325Z,16.87
2018-11-20T20:00:10.188Z,21.10
2018-11-20T20:02:56.616Z,17.87
2018-11-20T20:05:50.101Z,18.83
2018-11-20T20:08:38.817Z,17.43
2018-11-20T20:11:25.189Z,13.07
2018-11-20T20:14:11.435Z,15.53
2018-11-20T20:17:01.676Z,23.73
2018-11-20T20:19:46.457Z,17.37
2018-11-20T20:22:36.934Z,18.03
2018-11-20T20:25:27.772Z,10.40
2018-11-20T20:28:14.400Z,9.23
2018-11-20T20:31:00.562Z,8.83
2018-11-20T20:34:03.642Z,7.97
2018-11-20T20:36:59.538Z,11.13
2018-11-20T20:39:53.066Z,16.07
2018-11-20T20:42:42.888Z,17.77
2018-11-20T20:45:24.625Z,19.03
2018-11-20T20:48:13.900Z,16.90
2018-11-20T20:51:07.541Z,19.23
2018-11-20T20:54:13.575Z,12.10
2018-11-20T20:57:07.364Z,11.53
2018-11-20T20:59:53.602Z,13.07
2018-11-20T21:02:36.925Z,12.77
2018-11-20T21:05:27.739Z,14.57
2018-11-20T21:08:22.700Z,13.03
2018-11-20T21:11:08.234Z,17.17
2018-11-20T21:13:54.218Z,20.53
2018-11-20T21:16:41.867Z,19.53
2018-11-20T21:19:28.116Z,13.80
2018-11-20T21:22:30.740Z,14.63
2018-11-20T21:25:16.684Z,16.87
2018-11-20T21:28:09.962Z,18.53
2018-11-20T21:31:06.628Z,19.30
2018-11-20T21:34:06.630Z,17.20
2018-11-20T21:36:53.207Z,13.27
2018-11-20T21:39:39.625Z,13.30
2018-11-20T21:42:27.281Z,14.10
2018-11-20T21:45:08.938Z,13.53
2018-11-20T21:47:54.961Z,9.20
2018-11-20T21:50:57.428Z,11.67
2018-11-20T21:53:45.073Z,13.47
2018-11-20T21:56:45.004Z,15.60
2018-11-20T21:59:37.856Z,15.23
2018-11-20T22:02:24.898Z,11.63
2018-11-20T22:05:05.223Z,14.40
2018-11-20T22:07:51.325Z,12.93
2018-11-20T22:10:37.370Z,11.90
2018-11-20T22:13:31.077Z,13.03
2018-11-20T22:16:30.910Z,10.13
2018-11-20T22:19:21.287Z,9.57
2018-11-20T22:22:08.999Z,12.10
2018-11-20T22:24:55.625Z,14.13
2018-11-20T22:27:39.651Z,13.83
2018-11-20T22:30:22.489Z,11.23
2018-11-20T22:33:08.862Z,14.57
2018-11-20T22:36:08.890Z,12.43
2018-11-20T22:38:44.491Z,12.20
2018-11-20T22:41:30.989Z,11.80
2018-11-20T22:44:24.922Z,14.40
2018-11-20T22:47:07.997Z,13.37
2018-11-20T22:49:54.434Z,17.77
2018-11-20T22:52:47.805Z,13.23
2018-11-20T22:55:41.092Z,17.97
2018-11-20T22:58:27.385Z,20.40
2018-11-20T23:01:13.713Z,18.20
2018-11-20T23:04:16.332Z,17.73
2018-11-20T23:07:10.081Z,12.93
2018-11-20T23:09:38.723Z,15.47
2018-11-20T23:12:07.245Z,14.00
2018-11-20T23:14:35.855Z,12.90
2018-11-20T23:17:04.499Z,14.53
2018-11-20T23:19:33.111Z,15.70
2018-11-20T23:22:01.789Z,13.57
2018-11-20T23:24:30.420Z,11.57
2018-11-20T23:26:59.004Z,10.90
2018-11-20T23:29:27.807Z,11.63
2018-11-20T23:31:56.827Z,10.37
2018-11-20T23:34:25.520Z,8.90
2018-11-20T23:36:54.130Z,10.10
2018-11-20T23:39:22.821Z,10.87
2018-11-20T23:41:51.358Z,11.23
2018-11-20T23:44:20.037Z,11.67
2018-11-20T23:46:48.646Z,13.47
2018-11-20T23:49:17.348Z,14.70
2018-11-20T23:51:45.928Z,11.80
2018-11-20T23:54:14.576Z,8.27
2018-11-20T23:56:43.214Z,7.87
2018-11-20T23:59:11.820Z,8.37
